EKOD/ODE METAR and TAF weather

Enter ICAO airport designator
Station Type Date Time Source
EKOD METAR 2018/07/21 12:50 UTC NOAA

EKOD 211250Z 21007KT CAVOK 27/05 Q1012


Station Type Date Time Source
EKOD Decoded METAR 2018/07/21 12:50 UTC NOAA

Odense / Beldringe, Denmark (EKOD) 55-29N 010-20E 17M
Jul 21, 2018 - 08:50 AM EDT / 2018.07.21 1250 UTC
Wind: from the SSW (210 degrees) at 8 MPH (7 KT):0
Visibility: greater than 7 mile(s):0
Temperature: 80 F (27 C)
Dew Point: 41 F (5 C)
Relative Humidity: 24%
Pressure (altimeter): 29.88 in. Hg (1012 hPa)
ob: EKOD 211250Z 21007KT CAVOK 27/05 Q1012
cycle: 13

Station Type Date Time Source
EKOD TAF 2015/04/20 17:00 UTC NOAA

TAF
AMD EKOD 201701Z 2017/2018 CNL


Example: see airport list